createdAt,value
2018-06-28T00:00:34.074Z,14.90
2018-06-28T00:03:02.199Z,14.80
2018-06-28T00:05:30.340Z,14.90
2018-06-28T00:07:58.436Z,14.90
2018-06-28T00:10:26.550Z,14.90
2018-06-28T00:15:22.596Z,15.00
2018-06-28T00:17:50.689Z,15.00
2018-06-28T00:20:18.801Z,15.00
2018-06-28T00:22:46.916Z,15.00
2018-06-28T00:25:15.046Z,15.10
2018-06-28T00:27:43.161Z,15.00
2018-06-28T00:30:11.276Z,15.00
2018-06-28T00:32:39.363Z,15.00
2018-06-28T00:35:08.839Z,15.10
2018-06-28T00:37:36.952Z,15.10
2018-06-28T00:40:05.255Z,15.00
2018-06-28T00:42:33.354Z,15.00
2018-06-28T00:45:01.459Z,14.80
2018-06-28T00:47:29.573Z,14.70
2018-06-28T00:49:57.670Z,14.70
2018-06-28T00:52:25.775Z,14.60
2018-06-28T00:54:53.889Z,14.60
2018-06-28T00:57:21.999Z,14.70
2018-06-28T00:59:50.135Z,14.60
2018-06-28T01:02:18.250Z,14.60
2018-06-28T01:04:46.360Z,14.70
2018-06-28T01:07:14.467Z,14.70
2018-06-28T01:09:42.599Z,14.70
2018-06-28T01:12:10.692Z,14.70
2018-06-28T01:14:38.803Z,14.70
2018-06-28T01:17:06.941Z,14.60
2018-06-28T01:19:35.048Z,14.70
2018-06-28T01:22:03.168Z,14.70
2018-06-28T01:24:31.270Z,14.70
2018-06-28T01:26:59.410Z,14.70
2018-06-28T01:29:27.536Z,14.70
2018-06-28T01:31:55.642Z,14.70
2018-06-28T01:34:23.763Z,14.70
2018-06-28T01:36:51.854Z,14.60
2018-06-28T01:39:19.959Z,14.60
2018-06-28T01:41:59.559Z,14.60
2018-06-28T01:44:27.655Z,14.60
2018-06-28T01:46:55.788Z,14.50
2018-06-28T01:49:23.859Z,14.50
2018-06-28T01:51:51.966Z,14.40
2018-06-28T01:54:20.081Z,14.20
2018-06-28T01:56:48.186Z,14.00
2018-06-28T01:59:16.294Z,14.00
2018-06-28T02:01:44.424Z,14.00
2018-06-28T02:04:12.541Z,13.90
2018-06-28T02:06:40.660Z,13.90
2018-06-28T02:09:09.683Z,13.90
2018-06-28T02:11:37.811Z,13.90
2018-06-28T02:14:06.152Z,13.70
2018-06-28T02:16:34.338Z,13.70
2018-06-28T02:19:02.468Z,13.70
2018-06-28T02:21:30.596Z,13.80
2018-06-28T02:23:58.707Z,13.80
2018-06-28T02:26:26.847Z,13.80
2018-06-28T02:28:54.992Z,13.80
2018-06-28T02:31:23.126Z,13.70
2018-06-28T02:33:51.247Z,13.60
2018-06-28T02:36:19.360Z,13.70
2018-06-28T02:38:47.477Z,13.70
2018-06-28T02:41:15.595Z,13.80
2018-06-28T02:43:43.717Z,13.80
2018-06-28T02:46:11.849Z,13.80
2018-06-28T02:48:40.003Z,13.80
2018-06-28T02:51:08.115Z,13.80
2018-06-28T02:53:36.234Z,13.90
2018-06-28T02:58:32.424Z,13.70
2018-06-28T03:01:00.562Z,13.80
2018-06-28T03:05:56.598Z,13.70
2018-06-28T03:08:24.711Z,13.70
2018-06-28T03:10:52.828Z,13.80
2018-06-28T03:13:20.948Z,13.80
2018-06-28T03:15:49.060Z,13.70
2018-06-28T03:18:17.196Z,13.70
2018-06-28T03:20:45.312Z,13.70
2018-06-28T03:23:13.439Z,13.70
2018-06-28T03:25:41.539Z,13.70
2018-06-28T03:28:09.697Z,13.70
2018-06-28T03:30:37.808Z,13.70
2018-06-28T03:33:05.919Z,13.70
2018-06-28T03:35:34.035Z,13.70
2018-06-28T03:38:02.200Z,13.80
2018-06-28T03:40:30.291Z,13.70
2018-06-28T03:42:58.416Z,13.70
2018-06-28T03:45:30.256Z,13.70
2018-06-28T03:47:58.415Z,13.70
2018-06-28T03:50:26.508Z,13.80
2018-06-28T03:52:54.616Z,13.80
2018-06-28T03:55:22.715Z,13.80
2018-06-28T03:57:50.828Z,13.70
2018-06-28T04:00:18.947Z,13.60
2018-06-28T04:02:47.671Z,13.60
2018-06-28T04:05:15.795Z,13.70
2018-06-28T04:07:43.912Z,13.70
2018-06-28T04:10:12.021Z,13.70
2018-06-28T04:12:40.288Z,13.70
2018-06-28T04:15:08.411Z,13.70
2018-06-28T04:17:36.528Z,13.70
2018-06-28T04:20:04.674Z,13.70
2018-06-28T04:22:32.789Z,13.70
2018-06-28T04:25:00.915Z,13.80
2018-06-28T04:27:29.504Z,13.90
2018-06-28T04:29:58.031Z,13.90
2018-06-28T04:32:26.139Z,13.90
2018-06-28T04:34:54.255Z,13.90
2018-06-28T04:37:22.414Z,14.00
2018-06-28T04:39:50.558Z,14.10
2018-06-28T04:42:18.676Z,14.10
2018-06-28T04:44:46.807Z,14.30
2018-06-28T04:47:14.926Z,14.30
2018-06-28T04:49:43.114Z,14.40
2018-06-28T04:52:11.216Z,14.50
2018-06-28T04:54:39.335Z,14.40
2018-06-28T04:57:07.523Z,14.50
2018-06-28T04:59:35.676Z,14.60
2018-06-28T05:02:03.819Z,14.70
2018-06-28T05:04:31.940Z,14.80
2018-06-28T05:07:00.102Z,15.00
2018-06-28T05:09:28.319Z,15.00
2018-06-28T05:11:56.435Z,15.10
2018-06-28T05:14:24.565Z,15.20
2018-06-28T05:16:52.685Z,15.40
2018-06-28T05:19:20.792Z,15.60
2018-06-28T05:21:48.898Z,15.80
2018-06-28T05:24:17.001Z,15.90
2018-06-28T05:26:45.111Z,16.00
2018-06-28T05:29:13.323Z,16.20
2018-06-28T05:31:41.387Z,16.20
2018-06-28T05:34:09.567Z,16.40
2018-06-28T05:36:37.670Z,16.60
2018-06-28T05:39:07.811Z,16.90
2018-06-28T05:41:35.911Z,17.10
2018-06-28T05:44:04.138Z,17.30
2018-06-28T05:46:32.191Z,17.40
2018-06-28T05:51:28.219Z,17.60
2018-06-28T05:53:56.363Z,17.70
2018-06-28T05:56:24.479Z,17.80
2018-06-28T05:58:52.588Z,18.10
2018-06-28T06:01:20.696Z,18.30
2018-06-28T06:03:48.809Z,18.50
2018-06-28T06:06:16.915Z,18.80
2018-06-28T06:08:45.042Z,19.00
2018-06-28T06:11:13.138Z,19.00
2018-06-28T06:13:41.252Z,19.10
2018-06-28T06:16:09.464Z,19.20
2018-06-28T06:18:37.576Z,19.30
2018-06-28T06:21:05.731Z,19.50
2018-06-28T06:23:33.855Z,19.80
2018-06-28T06:26:01.973Z,20.00
2018-06-28T06:28:30.094Z,20.10
2018-06-28T06:30:58.231Z,20.10
2018-06-28T06:33:26.465Z,20.30
2018-06-28T06:35:54.615Z,20.40
2018-06-28T06:38:22.751Z,20.30
2018-06-28T06:40:50.883Z,20.50
2018-06-28T06:43:19.012Z,20.80
2018-06-28T06:45:47.207Z,20.90
2018-06-28T06:48:15.335Z,21.00
2018-06-28T06:50:43.459Z,21.00
2018-06-28T06:53:11.585Z,21.10
2018-06-28T06:55:39.728Z,21.10
2018-06-28T06:58:07.852Z,21.30
2018-06-28T07:00:35.993Z,21.50
2018-06-28T07:03:04.500Z,21.60
2018-06-28T07:05:32.639Z,21.50
2018-06-28T07:08:00.772Z,21.70
2018-06-28T07:10:29.032Z,21.70
2018-06-28T07:12:57.082Z,21.90
2018-06-28T07:15:25.188Z,22.20
2018-06-28T07:17:53.314Z,22.50
2018-06-28T07:20:21.444Z,22.60
2018-06-28T07:22:49.646Z,22.80
2018-06-28T07:25:17.656Z,22.90
2018-06-28T07:27:45.785Z,22.90
2018-06-28T07:30:13.972Z,23.20
2018-06-28T07:32:42.083Z,23.30
2018-06-28T07:35:10.208Z,23.30
2018-06-28T07:37:38.315Z,23.30
2018-06-28T07:40:06.450Z,23.20
2018-06-28T07:42:34.568Z,23.20
2018-06-28T07:45:02.693Z,23.20
2018-06-28T07:47:30.806Z,23.30
2018-06-28T07:49:58.890Z,23.50
2018-06-28T07:52:27.046Z,23.60
2018-06-28T07:54:55.151Z,23.80
2018-06-28T07:57:23.260Z,23.80
2018-06-28T07:59:51.367Z,24.00
2018-06-28T08:02:19.462Z,24.20
2018-06-28T08:04:47.599Z,24.20
2018-06-28T08:07:15.718Z,24.20
2018-06-28T08:09:43.846Z,24.30
2018-06-28T08:12:12.063Z,24.40
2018-06-28T08:14:40.160Z,24.70
2018-06-28T08:17:08.360Z,24.80
2018-06-28T08:19:37.243Z,24.80
2018-06-28T08:22:05.378Z,24.80
2018-06-28T08:24:33.486Z,24.80
2018-06-28T08:27:01.647Z,24.80
2018-06-28T08:29:29.748Z,25.00
2018-06-28T08:31:57.860Z,25.10
2018-06-28T08:34:26.008Z,25.10
2018-06-28T08:36:54.223Z,25.10
2018-06-28T08:39:22.427Z,25.10
2018-06-28T08:41:50.543Z,25.20
2018-06-28T08:44:19.330Z,25.30
2018-06-28T08:46:47.468Z,25.30
2018-06-28T08:49:15.585Z,25.40
2018-06-28T08:51:43.896Z,25.50
2018-06-28T08:54:12.107Z,25.50
2018-06-28T08:56:40.287Z,25.60
2018-06-28T08:59:08.463Z,25.80
2018-06-28T09:01:36.632Z,25.90
2018-06-28T09:04:04.827Z,25.90
2018-06-28T09:06:32.951Z,26.10
2018-06-28T09:09:01.243Z,26.10
2018-06-28T09:11:29.351Z,26.40
2018-06-28T09:13:57.539Z,26.30
2018-06-28T09:16:25.674Z,26.40
2018-06-28T09:18:54.200Z,26.40
2018-06-28T09:21:22.318Z,26.60
2018-06-28T09:23:50.455Z,26.60
2018-06-28T09:29:12.107Z,26.60
2018-06-28T09:31:40.255Z,26.80
2018-06-28T09:34:08.418Z,26.80
2018-06-28T09:36:36.546Z,26.90
2018-06-28T09:39:07.587Z,27.00
2018-06-28T09:44:03.719Z,27.30
2018-06-28T09:46:31.825Z,27.40
2018-06-28T09:48:59.952Z,27.50
2018-06-28T09:51:28.105Z,27.70
2018-06-28T09:53:56.223Z,27.70
2018-06-28T09:56:24.327Z,27.70
2018-06-28T09:58:52.481Z,27.70
2018-06-28T10:01:20.722Z,27.70
2018-06-28T10:03:48.870Z,27.60
2018-06-28T10:06:16.991Z,27.70
2018-06-28T10:08:45.107Z,27.60
2018-06-28T10:11:13.256Z,27.50
2018-06-28T10:16:09.315Z,27.50
2018-06-28T10:18:37.646Z,27.50
2018-06-28T10:21:06.055Z,27.50
2018-06-28T10:23:34.220Z,27.70
2018-06-28T10:26:02.373Z,27.90
2018-06-28T10:28:30.551Z,28.00
2018-06-28T10:30:58.736Z,28.10
2018-06-28T10:33:26.883Z,28.20
2018-06-28T10:35:54.995Z,28.10
2018-06-28T10:38:23.142Z,28.10
2018-06-28T10:40:51.287Z,28.00
2018-06-28T10:43:19.532Z,27.90
2018-06-28T10:45:47.653Z,28.00
2018-06-28T10:48:15.917Z,28.10
2018-06-28T10:50:44.172Z,28.20
2018-06-28T10:53:12.334Z,28.30
2018-06-28T10:58:08.475Z,28.50
2018-06-28T11:00:36.595Z,28.80
2018-06-28T11:03:04.909Z,28.90
2018-06-28T11:05:33.047Z,29.10
2018-06-28T11:08:01.171Z,29.00
2018-06-28T11:10:29.298Z,28.90
2018-06-28T11:12:57.420Z,28.80
2018-06-28T11:15:25.547Z,28.70
2018-06-28T11:17:53.660Z,28.80
2018-06-28T11:20:21.778Z,28.80
2018-06-28T11:22:49.889Z,29.00
2018-06-28T11:25:17.998Z,29.10
2018-06-28T11:27:46.108Z,29.20
2018-06-28T11:30:14.293Z,29.10
2018-06-28T11:32:42.404Z,29.20
2018-06-28T11:35:10.519Z,29.30
2018-06-28T11:37:38.632Z,29.40
2018-06-28T11:40:06.734Z,29.40
2018-06-28T11:42:35.020Z,29.40
2018-06-28T11:45:03.124Z,29.30
2018-06-28T11:47:31.233Z,29.20
2018-06-28T11:49:59.334Z,29.20
2018-06-28T11:52:27.490Z,29.30
2018-06-28T11:54:55.594Z,29.40
2018-06-28T11:57:23.703Z,29.50
2018-06-28T11:59:51.807Z,29.50
2018-06-28T12:02:39.738Z,29.50
2018-06-28T12:05:07.851Z,29.40
2018-06-28T12:07:35.974Z,29.40
2018-06-28T12:10:04.359Z,29.50
2018-06-28T12:12:32.475Z,29.50
2018-06-28T12:15:00.595Z,29.30
2018-06-28T12:17:28.718Z,29.30
2018-06-28T12:19:56.850Z,29.40
2018-06-28T12:22:25.048Z,29.50
2018-06-28T12:24:53.110Z,29.70
2018-06-28T12:27:21.232Z,29.80
2018-06-28T12:29:49.354Z,29.60
2018-06-28T12:32:17.470Z,29.30
2018-06-28T12:34:45.642Z,29.10
2018-06-28T12:37:13.766Z,29.10
2018-06-28T12:39:41.943Z,29.20
2018-06-28T12:42:10.092Z,29.30
2018-06-28T12:44:38.212Z,29.40
2018-06-28T12:47:44.422Z,29.40
2018-06-28T12:50:12.544Z,29.20
2018-06-28T12:52:43.835Z,28.90
2018-06-28T12:55:13.234Z,28.80
2018-06-28T12:57:41.394Z,28.80
2018-06-28T13:00:09.600Z,28.90
2018-06-28T13:02:37.771Z,29.00
2018-06-28T13:05:06.089Z,28.90
2018-06-28T13:07:34.226Z,28.90
2018-06-28T13:10:02.494Z,28.90
2018-06-28T13:12:30.905Z,28.90
2018-06-28T13:14:59.026Z,28.70
2018-06-28T13:17:27.151Z,28.50
2018-06-28T13:19:55.292Z,28.40
2018-06-28T13:22:23.416Z,28.40
2018-06-28T13:24:51.541Z,28.50
2018-06-28T13:27:19.684Z,28.60
2018-06-28T13:29:47.802Z,28.80
2018-06-28T13:32:16.205Z,29.00
2018-06-28T13:34:44.339Z,29.10
2018-06-28T13:37:12.476Z,28.90
2018-06-28T13:39:41.039Z,28.80
2018-06-28T13:42:09.297Z,28.80
2018-06-28T13:44:37.339Z,29.10
2018-06-28T13:47:05.587Z,29.30
2018-06-28T13:49:33.719Z,29.40
2018-06-28T13:52:01.887Z,29.40
2018-06-28T13:54:30.011Z,29.50
2018-06-28T13:56:58.143Z,29.60
2018-06-28T13:59:26.318Z,29.60
2018-06-28T14:01:54.447Z,29.50
2018-06-28T14:04:22.569Z,29.40
2018-06-28T14:06:50.682Z,29.40
2018-06-28T14:09:18.851Z,29.50
2018-06-28T14:11:46.937Z,29.70
2018-06-28T14:14:15.169Z,29.80
2018-06-28T14:16:43.290Z,29.90
2018-06-28T14:19:11.415Z,29.80
2018-06-28T14:21:39.556Z,29.70
2018-06-28T14:24:07.676Z,29.90
2018-06-28T14:26:35.779Z,29.60
2018-06-28T14:29:03.894Z,29.30
2018-06-28T14:31:32.012Z,29.00
2018-06-28T14:34:00.143Z,28.90
2018-06-28T14:36:28.247Z,28.90
2018-06-28T14:38:56.359Z,29.00
2018-06-28T14:41:24.479Z,29.10
2018-06-28T14:43:52.599Z,29.20
2018-06-28T14:46:20.706Z,29.20
2018-06-28T14:48:48.811Z,29.00
2018-06-28T14:51:16.925Z,29.00
2018-06-28T14:53:45.064Z,28.90
2018-06-28T14:56:13.162Z,28.90
2018-06-28T14:58:41.384Z,28.80
2018-06-28T15:01:09.419Z,28.80
2018-06-28T15:03:37.535Z,29.00
2018-06-28T15:06:05.634Z,29.10
2018-06-28T15:08:33.763Z,29.30
2018-06-28T15:11:01.863Z,29.40
2018-06-28T15:13:29.975Z,29.50
2018-06-28T15:15:58.071Z,29.60
2018-06-28T15:18:26.170Z,29.40
2018-06-28T15:20:54.283Z,29.20
2018-06-28T15:23:22.426Z,29.00
2018-06-28T15:25:50.519Z,28.80
2018-06-28T15:28:18.623Z,28.90
2018-06-28T15:30:46.731Z,28.90
2018-06-28T15:33:15.011Z,29.00
2018-06-28T15:35:42.972Z,29.00
2018-06-28T15:38:11.099Z,29.00
2018-06-28T15:40:39.210Z,29.10
2018-06-28T15:43:07.342Z,29.00
2018-06-28T15:45:35.454Z,29.10
2018-06-28T15:50:57.127Z,29.20
2018-06-28T15:53:25.302Z,29.30
2018-06-28T15:55:53.398Z,29.40
2018-06-28T15:58:22.373Z,29.10
2018-06-28T16:00:50.598Z,28.80
2018-06-28T16:03:18.722Z,28.60
2018-06-28T16:05:47.015Z,28.60
2018-06-28T16:08:15.102Z,28.60
2018-06-28T16:10:43.266Z,28.50
2018-06-28T16:13:11.375Z,28.40
2018-06-28T16:15:39.483Z,28.40
2018-06-28T16:18:07.597Z,28.40
2018-06-28T16:20:35.723Z,28.40
2018-06-28T16:23:03.845Z,28.30
2018-06-28T16:25:31.975Z,28.20
2018-06-28T16:28:00.123Z,28.10
2018-06-28T16:30:28.258Z,28.10
2018-06-28T16:32:56.391Z,28.10
2018-06-28T16:35:24.523Z,28.10
2018-06-28T16:37:52.663Z,28.00
2018-06-28T16:40:20.817Z,27.90
2018-06-28T16:42:48.987Z,27.80
2018-06-28T16:45:17.124Z,27.80
2018-06-28T16:47:45.339Z,27.70
2018-06-28T16:50:13.759Z,27.50
2018-06-28T16:52:41.879Z,27.30
2018-06-28T16:55:10.056Z,27.30
2018-06-28T16:57:38.163Z,27.20
2018-06-28T17:00:07.568Z,27.10
2018-06-28T17:02:35.692Z,27.10
2018-06-28T17:05:04.151Z,27.00
2018-06-28T17:07:32.291Z,27.00
2018-06-28T17:10:00.432Z,27.10
2018-06-28T17:12:28.571Z,27.00
2018-06-28T17:14:56.680Z,27.00
2018-06-28T17:17:24.807Z,27.20
2018-06-28T17:19:52.958Z,27.20
2018-06-28T17:22:21.094Z,27.20
2018-06-28T17:24:49.214Z,27.20
2018-06-28T17:27:17.367Z,27.30
2018-06-28T17:29:45.524Z,27.40
2018-06-28T17:32:13.655Z,27.50
2018-06-28T17:34:41.773Z,27.40
2018-06-28T17:37:09.888Z,27.40
2018-06-28T17:39:38.024Z,27.30
2018-06-28T17:42:06.170Z,27.30
2018-06-28T17:44:34.287Z,27.20
2018-06-28T17:47:02.802Z,27.10
2018-06-28T17:49:30.924Z,27.00
2018-06-28T17:51:59.035Z,26.90
2018-06-28T17:54:27.161Z,26.80
2018-06-28T17:56:55.288Z,26.80
2018-06-28T17:59:23.405Z,26.70
2018-06-28T18:01:51.528Z,26.60
2018-06-28T18:04:19.696Z,26.60
2018-06-28T18:06:47.842Z,26.60
2018-06-28T18:09:16.026Z,26.50
2018-06-28T18:11:44.087Z,26.50
2018-06-28T18:14:12.204Z,26.40
2018-06-28T18:16:40.357Z,26.40
2018-06-28T18:19:08.482Z,26.40
2018-06-28T18:21:36.635Z,26.30
2018-06-28T18:24:04.763Z,26.30
2018-06-28T18:26:32.940Z,26.30
2018-06-28T18:29:01.216Z,26.30
2018-06-28T18:31:29.337Z,26.20
2018-06-28T18:33:57.562Z,26.20
2018-06-28T18:36:25.687Z,26.10
2018-06-28T18:38:53.810Z,26.10
2018-06-28T18:41:21.934Z,26.10
2018-06-28T18:43:50.062Z,26.10
2018-06-28T18:46:18.162Z,26.00
2018-06-28T18:48:46.326Z,25.90
2018-06-28T18:51:14.492Z,25.90
2018-06-28T18:53:42.615Z,25.80
2018-06-28T18:56:10.836Z,25.80
2018-06-28T18:58:38.979Z,25.80
2018-06-28T19:01:07.102Z,25.80
2018-06-28T19:03:35.291Z,25.80
2018-06-28T19:06:03.467Z,25.70
2018-06-28T19:08:31.590Z,25.70
2018-06-28T19:10:59.751Z,25.60
2018-06-28T19:13:28.455Z,25.50
2018-06-28T19:16:02.219Z,25.50
2018-06-28T19:18:30.479Z,25.40
2018-06-28T19:21:04.082Z,25.30
2018-06-28T19:23:37.418Z,25.30
2018-06-28T19:26:05.551Z,25.20
2018-06-28T19:28:33.678Z,25.10
2018-06-28T19:31:07.298Z,25.00
2018-06-28T19:33:35.394Z,25.00
2018-06-28T19:36:03.507Z,24.90
2018-06-28T19:38:37.122Z,24.70
2018-06-28T19:41:10.865Z,24.60
2018-06-28T19:43:38.978Z,24.50
2018-06-28T19:46:07.075Z,24.40
2018-06-28T19:48:35.240Z,24.30
2018-06-28T19:51:08.711Z,24.20
2018-06-28T19:53:36.871Z,24.10
2018-06-28T19:56:05.012Z,24.00
2018-06-28T19:58:33.131Z,23.90
2018-06-28T20:01:06.687Z,23.80
2018-06-28T20:03:40.332Z,23.80
2018-06-28T20:06:08.430Z,23.70
2018-06-28T20:08:36.549Z,23.60
2018-06-28T20:11:04.663Z,23.50
2018-06-28T20:13:38.328Z,23.40
2018-06-28T20:16:11.956Z,23.20
2018-06-28T20:18:45.434Z,23.20
2018-06-28T20:21:13.668Z,23.10
2018-06-28T20:23:41.718Z,23.00
2018-06-28T20:26:15.386Z,23.00
2018-06-28T20:28:48.959Z,22.90
2018-06-28T20:31:22.473Z,22.70
2018-06-28T20:33:56.158Z,22.50
2018-06-28T20:36:24.268Z,22.40
2018-06-28T20:38:52.406Z,22.10
2018-06-28T20:41:20.575Z,21.90
2018-06-28T20:43:56.252Z,21.80
2018-06-28T20:46:24.386Z,21.70
2018-06-28T20:48:52.507Z,21.70
2018-06-28T20:51:20.631Z,21.70
2018-06-28T20:53:48.814Z,21.50
2018-06-28T20:56:16.938Z,21.50
2018-06-28T20:58:46.113Z,21.40
2018-06-28T21:01:14.239Z,21.30
2018-06-28T21:03:42.346Z,21.20
2018-06-28T21:06:10.548Z,21.10
2018-06-28T21:08:39.012Z,20.90
2018-06-28T21:11:07.721Z,20.80
2018-06-28T21:13:36.178Z,20.70
2018-06-28T21:16:04.830Z,20.40
2018-06-28T21:18:33.019Z,20.20
2018-06-28T21:21:01.182Z,20.30
2018-06-28T21:23:29.294Z,20.30
2018-06-28T21:25:57.439Z,20.20
2018-06-28T21:28:25.567Z,20.20
2018-06-28T21:30:53.674Z,20.10
2018-06-28T21:33:21.819Z,20.10
2018-06-28T21:35:49.954Z,20.10
2018-06-28T21:38:18.088Z,20.10
2018-06-28T21:40:46.232Z,20.10
2018-06-28T21:43:21.243Z,20.10
2018-06-28T21:45:49.354Z,20.10
2018-06-28T21:48:17.504Z,20.20
2018-06-28T21:50:45.635Z,20.20
2018-06-28T21:53:13.751Z,20.10
2018-06-28T21:55:41.861Z,20.10
2018-06-28T21:58:09.985Z,20.10
2018-06-28T22:00:38.702Z,20.10
2018-06-28T22:03:07.888Z,20.00
2018-06-28T22:05:36.070Z,20.00
2018-06-28T22:08:04.918Z,19.80
2018-06-28T22:10:32.968Z,19.40
2018-06-28T22:13:01.099Z,19.20
2018-06-28T22:15:30.299Z,19.00
2018-06-28T22:18:01.641Z,19.00
2018-06-28T22:20:30.638Z,18.90
2018-06-28T22:22:58.777Z,18.80
2018-06-28T22:25:28.112Z,18.70
2018-06-28T22:27:56.254Z,18.60
2018-06-28T22:30:24.773Z,18.60
2018-06-28T22:32:52.966Z,18.60
2018-06-28T22:35:21.097Z,18.70
2018-06-28T22:37:49.361Z,18.60
2018-06-28T22:40:17.779Z,18.60
2018-06-28T22:42:45.970Z,18.70
2018-06-28T22:45:14.088Z,18.80
2018-06-28T22:47:42.198Z,18.70
2018-06-28T22:50:10.322Z,18.60
2018-06-28T22:52:38.458Z,18.70
2018-06-28T22:55:06.581Z,18.70
2018-06-28T22:57:34.744Z,18.80
2018-06-28T23:00:02.863Z,18.70
2018-06-28T23:02:30.986Z,18.70
2018-06-28T23:04:59.115Z,18.70
2018-06-28T23:07:27.285Z,18.70
2018-06-28T23:09:55.423Z,18.60
2018-06-28T23:12:23.537Z,18.60
2018-06-28T23:14:51.656Z,18.60
2018-06-28T23:17:19.807Z,18.40
2018-06-28T23:19:47.938Z,18.20
2018-06-28T23:22:27.614Z,18.00
2018-06-28T23:24:55.713Z,17.90
2018-06-28T23:27:23.826Z,17.90
2018-06-28T23:29:52.010Z,18.00
2018-06-28T23:32:20.142Z,18.00
2018-06-28T23:34:48.314Z,18.00
2018-06-28T23:37:16.562Z,18.00
2018-06-28T23:39:44.617Z,18.00
2018-06-28T23:42:12.743Z,18.10
2018-06-28T23:44:40.849Z,18.00
2018-06-28T23:47:09.006Z,18.10
2018-06-28T23:49:37.094Z,18.00
2018-06-28T23:52:05.270Z,17.90
2018-06-28T23:54:33.444Z,17.80
2018-06-28T23:57:01.499Z,17.70
2018-06-28T23:59:29.588Z,17.60
